sensor_id;sensor_type;location;lat;lon;timestamp;pressure;altitude;pressure_sealevel;temperature;humidity
31403;BME280;18039;52.188;21.024;2022-12-18T00:02:12;79675.47;;;-141.45;91.09
31403;BME280;18039;52.188;21.024;2022-12-18T00:04:39;79667.34;;;-141.45;90.99
31403;BME280;18039;52.188;21.024;2022-12-18T00:07:07;79673.44;;;-141.45;91.16
31403;BME280;18039;52.188;21.024;2022-12-18T00:09:34;79671.41;;;-141.45;91.35
31403;BME280;18039;52.188;21.024;2022-12-18T00:12:06;79663.28;;;-141.45;91.41
31403;BME280;18039;52.188;21.024;2022-12-18T00:14:41;79667.34;;;-141.45;91.07
31403;BME280;18039;52.188;21.024;2022-12-18T00:17:10;79669.38;;;-141.45;91.40
31403;BME280;18039;52.188;21.024;2022-12-18T00:19:37;79667.34;;;-141.45;91.34
31403;BME280;18039;52.188;21.024;2022-12-18T00:22:04;79661.28;;;-141.45;91.19
31403;BME280;18039;52.188;21.024;2022-12-18T00:24:32;79659.25;;;-141.45;91.46
31403;BME280;18039;52.188;21.024;2022-12-18T00:26:59;79661.28;;;-141.45;91.54
31403;BME280;18039;52.188;21.024;2022-12-18T00:29:26;79659.25;;;-141.45;91.34
31403;BME280;18039;52.188;21.024;2022-12-18T00:31:53;79663.28;;;-141.45;91.56
31403;BME280;18039;52.188;21.024;2022-12-18T00:34:20;79663.28;;;-141.45;91.86
31403;BME280;18039;52.188;21.024;2022-12-18T00:36:47;79659.25;;;-141.45;91.94
31403;BME280;18039;52.188;21.024;2022-12-18T00:39:15;79659.25;;;-141.45;91.74
31403;BME280;18039;52.188;21.024;2022-12-18T00:41:44;79653.16;;;-141.45;91.66
31403;BME280;18039;52.188;21.024;2022-12-18T00:44:30;79647.06;;;-141.45;91.76
31403;BME280;18039;52.188;21.024;2022-12-18T00:46:58;79651.13;;;-141.45;91.82
31403;BME280;18039;52.188;21.024;2022-12-18T00:49:25;79638.94;;;-141.45;91.46
31403;BME280;18039;52.188;21.024;2022-12-18T00:51:53;79643.00;;;-141.45;91.10
31403;BME280;18039;52.188;21.024;2022-12-18T00:54:19;79643.00;;;-141.45;91.07
31403;BME280;18039;52.188;21.024;2022-12-18T00:56:47;79643.00;;;-141.45;90.85
31403;BME280;18039;52.188;21.024;2022-12-18T00:59:17;79638.94;;;-141.45;91.16
31403;BME280;18039;52.188;21.024;2022-12-18T01:01:44;79634.88;;;-141.45;90.85
31403;BME280;18039;52.188;21.024;2022-12-18T01:04:12;79643.00;;;-141.45;91.02
31403;BME280;18039;52.188;21.024;2022-12-18T01:06:39;79634.88;;;-141.45;90.80
31403;BME280;18039;52.188;21.024;2022-12-18T01:09:06;79643.00;;;-141.45;90.84
31403;BME280;18039;52.188;21.024;2022-12-18T01:11:36;79643.00;;;-141.45;90.87
31403;BME280;18039;52.188;21.024;2022-12-18T01:14:04;79643.00;;;-141.45;90.62
31403;BME280;18039;52.188;21.024;2022-12-18T01:16:31;79655.19;;;-141.45;90.34
31403;BME280;18039;52.188;21.024;2022-12-18T01:18:58;79651.13;;;-141.45;90.83
31403;BME280;18039;52.188;21.024;2022-12-18T01:21:26;79663.28;;;-141.45;90.69
31403;BME280;18039;52.188;21.024;2022-12-18T01:23:55;79659.25;;;-141.45;90.20
31403;BME280;18039;52.188;21.024;2022-12-18T01:26:24;79663.28;;;-141.45;89.87
31403;BME280;18039;52.188;21.024;2022-12-18T01:28:51;79663.28;;;-141.45;89.85
31403;BME280;18039;52.188;21.024;2022-12-18T01:31:24;79663.28;;;-141.45;89.91
31403;BME280;18039;52.188;21.024;2022-12-18T01:33:52;79667.34;;;-141.45;89.98
31403;BME280;18039;52.188;21.024;2022-12-18T01:36:23;79667.34;;;-141.45;90.15
31403;BME280;18039;52.188;21.024;2022-12-18T01:38:51;79667.34;;;-141.45;90.37
31403;BME280;18039;52.188;21.024;2022-12-18T01:41:22;79669.38;;;-141.45;89.96
31403;BME280;18039;52.188;21.024;2022-12-18T01:43:55;79661.28;;;-141.45;89.23
31403;BME280;18039;52.188;21.024;2022-12-18T01:46:25;79669.38;;;-141.45;88.61
31403;BME280;18039;52.188;21.024;2022-12-18T01:48:59;79669.38;;;-141.45;88.61
31403;BME280;18039;52.188;21.024;2022-12-18T01:51:30;79669.38;;;-141.45;89.12
31403;BME280;18039;52.188;21.024;2022-12-18T01:53:57;79667.34;;;-141.45;88.78
31403;BME280;18039;52.188;21.024;2022-12-18T01:56:26;79683.59;;;-141.45;89.04
31403;BME280;18039;52.188;21.024;2022-12-18T01:58:58;79679.53;;;-141.45;89.13
31403;BME280;18039;52.188;21.024;2022-12-18T02:01:27;79677.50;;;-141.45;89.59
31403;BME280;18039;52.188;21.024;2022-12-18T02:04:21;79683.59;;;-141.45;89.43
31403;BME280;18039;52.188;21.024;2022-12-18T02:06:43;79677.50;;;-141.45;89.28
31403;BME280;18039;52.188;21.024;2022-12-18T02:09:14;79683.59;;;-141.45;89.06
31403;BME280;18039;52.188;21.024;2022-12-18T02:11:53;79679.53;;;-141.45;88.76
31403;BME280;18039;52.188;21.024;2022-12-18T02:17:17;79695.75;;;-141.45;88.45
31403;BME280;18039;52.188;21.024;2022-12-18T02:27:56;79707.94;;;-141.45;88.40
31403;BME280;18039;52.188;21.024;2022-12-18T02:30:24;79716.03;;;-141.45;88.31
31403;BME280;18039;52.188;21.024;2022-12-18T02:32:54;79716.03;;;-141.45;88.28
31403;BME280;18039;52.188;21.024;2022-12-18T02:35:41;79707.94;;;-141.45;88.20
31403;BME280;18039;52.188;21.024;2022-12-18T02:38:12;79712.00;;;-141.45;88.26
31403;BME280;18039;52.188;21.024;2022-12-18T02:40:41;79718.06;;;-141.45;88.37
31403;BME280;18039;52.188;21.024;2022-12-18T02:43:15;79724.16;;;-141.45;87.77
31403;BME280;18039;52.188;21.024;2022-12-18T02:45:50;79728.22;;;-141.45;88.10
31403;BME280;18039;52.188;21.024;2022-12-18T02:48:31;79728.22;;;-141.45;87.90
31403;BME280;18039;52.188;21.024;2022-12-18T02:51:17;79720.09;;;-141.45;87.94
31403;BME280;18039;52.188;21.024;2022-12-18T02:57:11;79740.41;;;-141.45;87.71
31403;BME280;18039;52.188;21.024;2022-12-18T02:59:56;79740.41;;;-141.45;87.63
31403;BME280;18039;52.188;21.024;2022-12-18T03:05:33;79748.50;;;-141.45;87.88
31403;BME280;18039;52.188;21.024;2022-12-18T03:08:07;79756.63;;;-141.45;88.35
31403;BME280;18039;52.188;21.024;2022-12-18T03:10:47;79760.69;;;-141.45;88.03
31403;BME280;18039;52.188;21.024;2022-12-18T03:13:21;79764.75;;;-141.45;87.73
31403;BME280;18039;52.188;21.024;2022-12-18T03:15:53;79756.63;;;-141.45;87.98
31403;BME280;18039;52.188;21.024;2022-12-18T03:18:27;79762.72;;;-141.45;87.71
31403;BME280;18039;52.188;21.024;2022-12-18T03:20:58;79768.81;;;-141.45;88.07
31403;BME280;18039;52.188;21.024;2022-12-18T03:23:29;79776.91;;;-141.45;88.14
31403;BME280;18039;52.188;21.024;2022-12-18T03:26:02;79764.75;;;-141.45;87.35
31403;BME280;18039;52.188;21.024;2022-12-18T03:28:41;79776.91;;;-141.45;87.18
31403;BME280;18039;52.188;21.024;2022-12-18T03:31:11;79797.22;;;-141.45;87.50
31403;BME280;18039;52.188;21.024;2022-12-18T03:36:24;79805.31;;;-141.45;87.15
31403;BME280;18039;52.188;21.024;2022-12-18T03:38:51;79803.28;;;-141.45;87.08
31403;BME280;18039;52.188;21.024;2022-12-18T03:41:32;79805.31;;;-141.45;87.56
31403;BME280;18039;52.188;21.024;2022-12-18T03:45:04;79805.31;;;-141.45;87.32
31403;BME280;18039;52.188;21.024;2022-12-18T03:55:53;79817.50;;;-141.45;87.78
31403;BME280;18039;52.188;21.024;2022-12-18T03:58:24;79819.53;;;-141.45;88.06
31403;BME280;18039;52.188;21.024;2022-12-18T04:01:06;79817.50;;;-141.45;88.35
31403;BME280;18039;52.188;21.024;2022-12-18T04:03:37;79813.44;;;-141.45;88.12
31403;BME280;18039;52.188;21.024;2022-12-18T04:06:07;79809.38;;;-141.45;87.49
31403;BME280;18039;52.188;21.024;2022-12-18T04:08:34;79827.66;;;-141.45;87.58
31403;BME280;18039;52.188;21.024;2022-12-18T04:11:05;79825.63;;;-141.45;87.46
31403;BME280;18039;52.188;21.024;2022-12-18T04:13:37;79825.63;;;-141.45;87.34
31403;BME280;18039;52.188;21.024;2022-12-18T04:16:09;79833.72;;;-141.45;87.62
31403;BME280;18039;52.188;21.024;2022-12-18T04:18:40;79833.72;;;-141.45;87.68
31403;BME280;18039;52.188;21.024;2022-12-18T04:21:07;79821.56;;;-141.45;87.07
31403;BME280;18039;52.188;21.024;2022-12-18T04:23:36;79821.56;;;-141.45;86.80
31403;BME280;18039;52.188;21.024;2022-12-18T04:26:03;79833.72;;;-141.45;87.10
31403;BME280;18039;52.188;21.024;2022-12-18T04:28:49;79849.97;;;-141.45;86.70
31403;BME280;18039;52.188;21.024;2022-12-18T04:31:16;79858.06;;;-141.45;86.72
31403;BME280;18039;52.188;21.024;2022-12-18T04:33:43;79874.31;;;-141.45;86.99
31403;BME280;18039;52.188;21.024;2022-12-18T04:36:10;79870.25;;;-141.45;86.60
31403;BME280;18039;52.188;21.024;2022-12-18T04:38:39;79874.31;;;-141.45;86.68
31403;BME280;18039;52.188;21.024;2022-12-18T04:41:10;79878.38;;;-141.45;86.91
31403;BME280;18039;52.188;21.024;2022-12-18T04:43:39;79886.47;;;-141.45;86.85
31403;BME280;18039;52.188;21.024;2022-12-18T04:46:07;79898.66;;;-141.45;86.96
31403;BME280;18039;52.188;21.024;2022-12-18T04:48:35;79906.78;;;-141.45;87.30
31403;BME280;18039;52.188;21.024;2022-12-18T04:51:04;79923.00;;;-141.45;87.45
31403;BME280;18039;52.188;21.024;2022-12-18T04:53:32;79931.13;;;-141.45;87.54
31403;BME280;18039;52.188;21.024;2022-12-18T04:58:30;79943.31;;;-141.45;87.73
31403;BME280;18039;52.188;21.024;2022-12-18T05:00:57;79939.25;;;-141.45;87.80
31403;BME280;18039;52.188;21.024;2022-12-18T05:03:24;79955.47;;;-141.45;88.06
31403;BME280;18039;52.188;21.024;2022-12-18T05:05:51;79953.44;;;-141.45;88.23
31403;BME280;18039;52.188;21.024;2022-12-18T05:08:18;79969.69;;;-141.45;88.49
31403;BME280;18039;52.188;21.024;2022-12-18T05:10:45;79992.00;;;-141.45;88.78
31403;BME280;18039;52.188;21.024;2022-12-18T05:13:12;79996.06;;;-141.45;89.06
31403;BME280;18039;52.188;21.024;2022-12-18T05:15:39;80010.25;;;-141.45;89.14
31403;BME280;18039;52.188;21.024;2022-12-18T05:18:07;80020.41;;;-141.45;89.46
31403;BME280;18039;52.188;21.024;2022-12-18T05:20:34;80032.59;;;-141.45;89.65
31403;BME280;18039;52.188;21.024;2022-12-18T05:23:01;80036.63;;;-141.45;89.72
31403;BME280;18039;52.188;21.024;2022-12-18T05:25:28;80044.75;;;-141.45;90.02
31403;BME280;18039;52.188;21.024;2022-12-18T05:27:55;80048.81;;;-141.45;90.17
31403;BME280;18039;52.188;21.024;2022-12-18T05:30:22;80040.69;;;-141.45;90.13
31403;BME280;18039;52.188;21.024;2022-12-18T05:32:49;80048.81;;;-141.45;90.28
31403;BME280;18039;52.188;21.024;2022-12-18T05:35:17;80050.84;;;-141.45;90.97
31403;BME280;18039;52.188;21.024;2022-12-18T05:37:44;80044.75;;;-141.45;91.28
31403;BME280;18039;52.188;21.024;2022-12-18T05:40:11;80061.00;;;-141.45;92.10
31403;BME280;18039;52.188;21.024;2022-12-18T05:42:39;80061.00;;;-141.45;92.52
31403;BME280;18039;52.188;21.024;2022-12-18T05:45:06;80065.03;;;-141.45;92.88
31403;BME280;18039;52.188;21.024;2022-12-18T05:47:34;80056.94;;;-141.45;92.88
31403;BME280;18039;52.188;21.024;2022-12-18T05:50:00;80061.00;;;-141.45;93.02
31403;BME280;18039;52.188;21.024;2022-12-18T05:52:28;80065.03;;;-141.45;93.11
31403;BME280;18039;52.188;21.024;2022-12-18T05:54:54;80069.09;;;-141.45;93.63
31403;BME280;18039;52.188;21.024;2022-12-18T05:57:21;80065.03;;;-141.45;93.70
31403;BME280;18039;52.188;21.024;2022-12-18T05:59:48;80067.06;;;-141.45;93.77
31403;BME280;18039;52.188;21.024;2022-12-18T06:02:15;80069.09;;;-141.45;94.00
31403;BME280;18039;52.188;21.024;2022-12-18T06:04:43;80077.22;;;-141.45;94.28
31403;BME280;18039;52.188;21.024;2022-12-18T06:07:10;80085.34;;;-141.45;94.20
31403;BME280;18039;52.188;21.024;2022-12-18T06:09:37;80081.28;;;-141.45;94.38
31403;BME280;18039;52.188;21.024;2022-12-18T06:12:04;80093.44;;;-141.45;94.56
31403;BME280;18039;52.188;21.024;2022-12-18T06:14:31;80093.44;;;-141.45;94.87
31403;BME280;18039;52.188;21.024;2022-12-18T06:16:58;80113.75;;;-141.45;95.04
31403;BME280;18039;52.188;21.024;2022-12-18T06:19:25;80099.53;;;-141.45;95.31
31403;BME280;18039;52.188;21.024;2022-12-18T06:21:52;80089.41;;;-141.45;95.31
31403;BME280;18039;52.188;21.024;2022-12-18T06:24:19;80093.44;;;-141.45;95.32
31403;BME280;18039;52.188;21.024;2022-12-18T06:26:47;80089.41;;;-141.45;95.39
31403;BME280;18039;52.188;21.024;2022-12-18T06:29:13;80089.41;;;-141.45;95.33
31403;BME280;18039;52.188;21.024;2022-12-18T06:31:40;80085.34;;;-141.45;95.52
31403;BME280;18039;52.188;21.024;2022-12-18T06:34:07;80091.44;;;-141.45;95.53
31403;BME280;18039;52.188;21.024;2022-12-18T06:36:35;80089.41;;;-141.45;95.48
31403;BME280;18039;52.188;21.024;2022-12-18T06:39:03;80089.41;;;-141.45;95.56
31403;BME280;18039;52.188;21.024;2022-12-18T06:41:30;80093.44;;;-141.45;95.28
31403;BME280;18039;52.188;21.024;2022-12-18T06:43:57;80093.44;;;-141.45;94.93
31403;BME280;18039;52.188;21.024;2022-12-18T06:46:26;80085.34;;;-141.45;94.68
31403;BME280;18039;52.188;21.024;2022-12-18T06:48:53;80089.41;;;-141.45;94.74
31403;BME280;18039;52.188;21.024;2022-12-18T06:51:23;80093.44;;;-141.45;94.72
31403;BME280;18039;52.188;21.024;2022-12-18T06:53:50;80085.34;;;-141.45;94.54
31403;BME280;18039;52.188;21.024;2022-12-18T06:56:17;80101.56;;;-141.45;94.35
31403;BME280;18039;52.188;21.024;2022-12-18T06:58:44;80093.44;;;-141.45;94.39
31403;BME280;18039;52.188;21.024;2022-12-18T07:01:30;80101.56;;;-141.45;94.05
31403;BME280;18039;52.188;21.024;2022-12-18T07:03:57;80101.56;;;-141.45;93.84
31403;BME280;18039;52.188;21.024;2022-12-18T07:06:25;80105.63;;;-141.45;94.11
31403;BME280;18039;52.188;21.024;2022-12-18T07:08:53;80101.56;;;-141.45;94.36
31403;BME280;18039;52.188;21.024;2022-12-18T07:11:21;80095.47;;;-141.45;94.03
31403;BME280;18039;52.188;21.024;2022-12-18T07:13:48;80109.69;;;-141.45;94.08
31403;BME280;18039;52.188;21.024;2022-12-18T07:16:18;80101.56;;;-141.45;94.13
31403;BME280;18039;52.188;21.024;2022-12-18T07:18:52;80095.47;;;-141.45;93.94
31403;BME280;18039;52.188;21.024;2022-12-18T07:21:21;80093.44;;;-141.45;93.53
31403;BME280;18039;52.188;21.024;2022-12-18T07:23:49;80089.41;;;-141.45;93.48
31403;BME280;18039;52.188;21.024;2022-12-18T07:26:18;80081.28;;;-141.45;93.37
31403;BME280;18039;52.188;21.024;2022-12-18T07:28:47;80081.28;;;-141.45;93.33
31403;BME280;18039;52.188;21.024;2022-12-18T07:31:17;80077.22;;;-141.45;93.48
31403;BME280;18039;52.188;21.024;2022-12-18T07:33:47;80069.09;;;-141.45;93.49
31403;BME280;18039;52.188;21.024;2022-12-18T07:36:15;80061.00;;;-141.45;93.15
31403;BME280;18039;52.188;21.024;2022-12-18T07:38:42;80071.13;;;-141.45;92.72
31403;BME280;18039;52.188;21.024;2022-12-18T07:41:11;80069.09;;;-141.45;92.83
31403;BME280;18039;52.188;21.024;2022-12-18T07:43:40;80065.03;;;-141.45;93.37
31403;BME280;18039;52.188;21.024;2022-12-18T07:46:09;80058.97;;;-141.45;93.52
31403;BME280;18039;52.188;21.024;2022-12-18T07:48:39;80052.88;;;-141.45;93.16
31403;BME280;18039;52.188;21.024;2022-12-18T07:51:07;80065.03;;;-141.45;92.81
31403;BME280;18039;52.188;21.024;2022-12-18T07:53:35;80054.91;;;-141.45;93.24
31403;BME280;18039;52.188;21.024;2022-12-18T07:56:05;80048.81;;;-141.45;93.42
31403;BME280;18039;52.188;21.024;2022-12-18T07:58:53;80024.47;;;-141.45;93.25
31403;BME280;18039;52.188;21.024;2022-12-18T08:01:20;80028.53;;;-141.45;93.14
31403;BME280;18039;52.188;21.024;2022-12-18T08:03:48;80040.69;;;-141.45;91.79
31403;BME280;18039;52.188;21.024;2022-12-18T08:06:18;80040.69;;;-141.45;92.04
31403;BME280;18039;52.188;21.024;2022-12-18T08:08:52;80040.69;;;-141.45;91.43
31403;BME280;18039;52.188;21.024;2022-12-18T08:11:19;80056.94;;;-141.45;90.40
31403;BME280;18039;52.188;21.024;2022-12-18T08:13:47;80052.88;;;-141.45;90.29
31403;BME280;18039;52.188;21.024;2022-12-18T08:16:15;80061.00;;;-141.45;90.76
31403;BME280;18039;52.188;21.024;2022-12-18T08:18:42;80065.03;;;-141.45;90.31
31403;BME280;18039;52.188;21.024;2022-12-18T08:21:19;80061.00;;;-141.45;90.66
31403;BME280;18039;52.188;21.024;2022-12-18T08:23:49;80065.03;;;-141.45;90.78
31403;BME280;18039;52.188;21.024;2022-12-18T08:26:18;80065.03;;;-141.45;90.64
31403;BME280;18039;52.188;21.024;2022-12-18T08:28:47;80058.97;;;-141.45;90.20
31403;BME280;18039;52.188;21.024;2022-12-18T08:31:15;80058.97;;;-141.45;89.82
31403;BME280;18039;52.188;21.024;2022-12-18T08:33:42;80061.00;;;-141.45;89.73
31403;BME280;18039;52.188;21.024;2022-12-18T08:36:10;80081.28;;;-141.45;89.23
31403;BME280;18039;52.188;21.024;2022-12-18T08:38:37;80077.22;;;-141.45;89.90
31403;BME280;18039;52.188;21.024;2022-12-18T08:41:06;80073.16;;;-141.45;89.30
31403;BME280;18039;52.188;21.024;2022-12-18T08:43:34;80093.44;;;-141.45;89.37
31403;BME280;18039;52.188;21.024;2022-12-18T08:46:21;80077.22;;;-141.45;89.30
31403;BME280;18039;52.188;21.024;2022-12-18T08:48:50;80089.41;;;-141.45;88.80
31403;BME280;18039;52.188;21.024;2022-12-18T08:51:18;80083.31;;;-141.45;88.53
31403;BME280;18039;52.188;21.024;2022-12-18T08:53:45;80089.41;;;-141.45;88.98
31403;BME280;18039;52.188;21.024;2022-12-18T08:56:13;80105.63;;;-141.45;89.13
31403;BME280;18039;52.188;21.024;2022-12-18T08:58:41;80105.63;;;-141.45;89.38
31403;BME280;18039;52.188;21.024;2022-12-18T09:01:10;80107.66;;;-141.45;90.13
31403;BME280;18039;52.188;21.024;2022-12-18T09:03:38;80093.44;;;-141.45;90.01
31403;BME280;18039;52.188;21.024;2022-12-18T09:06:06;80091.44;;;-141.45;89.34
31403;BME280;18039;52.188;21.024;2022-12-18T09:08:34;80097.50;;;-141.45;88.83
31403;BME280;18039;52.188;21.024;2022-12-18T09:11:01;80105.63;;;-141.45;88.84
31403;BME280;18039;52.188;21.024;2022-12-18T09:13:29;80117.81;;;-141.45;89.33
31403;BME280;18039;52.188;21.024;2022-12-18T09:15:56;80105.63;;;-141.45;89.10
31403;BME280;18039;52.188;21.024;2022-12-18T09:18:24;80101.56;;;-141.45;88.88
31403;BME280;18039;52.188;21.024;2022-12-18T09:20:51;80105.63;;;-141.45;89.11
31403;BME280;18039;52.188;21.024;2022-12-18T09:23:20;80097.50;;;-141.45;89.48
31403;BME280;18039;52.188;21.024;2022-12-18T09:25:48;80093.44;;;-141.45;89.28
31403;BME280;18039;52.188;21.024;2022-12-18T09:28:18;80073.16;;;-141.45;89.15
31403;BME280;18039;52.188;21.024;2022-12-18T09:30:49;80061.00;;;-141.45;89.20
31403;BME280;18039;52.188;21.024;2022-12-18T09:33:17;80050.84;;;-141.45;88.40
31403;BME280;18039;52.188;21.024;2022-12-18T09:35:45;80048.81;;;-141.45;87.24
31403;BME280;18039;52.188;21.024;2022-12-18T09:38:16;80061.00;;;-141.45;87.19
31403;BME280;18039;52.188;21.024;2022-12-18T09:40:49;80077.22;;;-141.45;87.68
31403;BME280;18039;52.188;21.024;2022-12-18T09:43:20;80063.00;;;-141.45;87.53
31403;BME280;18039;52.188;21.024;2022-12-18T09:45:56;80040.69;;;-141.45;88.09
31403;BME280;18039;52.188;21.024;2022-12-18T09:48:30;80028.53;;;-141.45;87.25
31403;BME280;18039;52.188;21.024;2022-12-18T09:51:06;80020.41;;;-141.45;86.58
31403;BME280;18039;52.188;21.024;2022-12-18T09:53:38;80016.34;;;-141.45;86.22
31403;BME280;18039;52.188;21.024;2022-12-18T09:56:12;80024.47;;;-141.45;84.10
31403;BME280;18039;52.188;21.024;2022-12-18T09:58:49;80044.75;;;-141.45;84.94
31403;BME280;18039;52.188;21.024;2022-12-18T10:01:23;80016.34;;;-141.45;85.75
31403;BME280;18039;52.188;21.024;2022-12-18T10:03:52;80004.16;;;-141.45;84.69
31403;BME280;18039;52.188;21.024;2022-12-18T10:25:10;79996.06;;;-141.45;84.12
31403;BME280;18039;52.188;21.024;2022-12-18T10:27:41;80008.22;;;-141.45;84.04
31403;BME280;18039;52.188;21.024;2022-12-18T10:30:16;80028.53;;;-141.45;84.21
31403;BME280;18039;52.188;21.024;2022-12-18T10:32:44;80028.53;;;-141.45;84.96
31403;BME280;18039;52.188;21.024;2022-12-18T10:35:19;80034.59;;;-141.45;85.67
31403;BME280;18039;52.188;21.024;2022-12-18T10:38:07;80034.59;;;-141.45;84.71
31403;BME280;18039;52.188;21.024;2022-12-18T10:40:55;80048.81;;;-141.45;84.80
31403;BME280;18039;52.188;21.024;2022-12-18T10:43:40;80036.63;;;-141.45;85.59
31403;BME280;18039;52.188;21.024;2022-12-18T10:48:52;80016.34;;;-141.45;84.95
31403;BME280;18039;52.188;21.024;2022-12-18T10:51:32;80000.13;;;-141.45;85.17
31403;BME280;18039;52.188;21.024;2022-12-18T10:54:14;80000.13;;;-141.45;85.28
31403;BME280;18039;52.188;21.024;2022-12-18T10:56:43;80000.13;;;-141.45;85.08
31403;BME280;18039;52.188;21.024;2022-12-18T10:59:14;79996.06;;;-141.45;84.41
31403;BME280;18039;52.188;21.024;2022-12-18T11:01:50;80012.28;;;-141.45;84.59
31403;BME280;18039;52.188;21.024;2022-12-18T11:09:34;79973.72;;;-141.45;85.03
31403;BME280;18039;52.188;21.024;2022-12-18T11:12:15;79959.53;;;-141.45;84.26
31403;BME280;18039;52.188;21.024;2022-12-18T11:14:50;79961.56;;;-141.45;83.49
31403;BME280;18039;52.188;21.024;2022-12-18T11:17:33;79971.72;;;-141.45;83.13
31403;BME280;18039;52.188;21.024;2022-12-18T11:22:59;79959.53;;;-141.45;84.58
31403;BME280;18039;52.188;21.024;2022-12-18T11:25:28;79955.47;;;-141.45;84.13
31403;BME280;18039;52.188;21.024;2022-12-18T11:28:03;79937.22;;;-141.45;84.48
31403;BME280;18039;52.188;21.024;2022-12-18T11:30:34;79931.13;;;-141.45;83.05
31403;BME280;18039;52.188;21.024;2022-12-18T11:33:06;79923.00;;;-141.45;83.91
31403;BME280;18039;52.188;21.024;2022-12-18T11:35:53;79923.00;;;-141.45;80.59
31403;BME280;18039;52.188;21.024;2022-12-18T11:38:27;79951.41;;;-141.45;81.36
31403;BME280;18039;52.188;21.024;2022-12-18T11:43:32;79945.31;;;-141.45;82.63
31403;BME280;18039;52.188;21.024;2022-12-18T11:46:05;79943.31;;;-141.45;83.38
31403;BME280;18039;52.188;21.024;2022-12-18T11:48:41;79951.41;;;-141.45;82.11
31403;BME280;18039;52.188;21.024;2022-12-18T11:51:15;79963.59;;;-141.45;81.08
31403;BME280;18039;52.188;21.024;2022-12-18T11:53:44;79979.81;;;-141.45;81.18
31403;BME280;18039;52.188;21.024;2022-12-18T12:01:48;79951.41;;;-141.45;83.14
31403;BME280;18039;52.188;21.024;2022-12-18T12:07:44;79971.72;;;-141.45;82.30
31403;BME280;18039;52.188;21.024;2022-12-18T12:21:32;79961.56;;;-141.45;82.98
31403;BME280;18039;52.188;21.024;2022-12-18T12:24:11;79955.47;;;-141.45;83.55
31403;BME280;18039;52.188;21.024;2022-12-18T12:26:56;79951.41;;;-141.45;83.52
31403;BME280;18039;52.188;21.024;2022-12-18T12:29:36;79955.47;;;-141.45;83.81
31403;BME280;18039;52.188;21.024;2022-12-18T12:40:12;79947.34;;;-141.45;82.67
31403;BME280;18039;52.188;21.024;2022-12-18T12:46:09;79935.19;;;-141.45;83.38
31403;BME280;18039;52.188;21.024;2022-12-18T12:48:46;79951.41;;;-141.45;82.98
31403;BME280;18039;52.188;21.024;2022-12-18T12:51:32;79953.44;;;-141.45;82.77
31403;BME280;18039;52.188;21.024;2022-12-18T12:54:03;79955.47;;;-141.45;83.04
31403;BME280;18039;52.188;21.024;2022-12-18T12:57:09;79953.44;;;-141.45;83.43
31403;BME280;18039;52.188;21.024;2022-12-18T13:02:52;79967.66;;;-141.45;82.14
31403;BME280;18039;52.188;21.024;2022-12-18T13:05:28;80000.13;;;-141.45;81.82
31403;BME280;18039;52.188;21.024;2022-12-18T13:08:04;80004.16;;;-141.45;82.47
31403;BME280;18039;52.188;21.024;2022-12-18T13:13:09;80016.34;;;-141.45;83.77
31403;BME280;18039;52.188;21.024;2022-12-18T13:15:47;80024.47;;;-141.45;83.63
31403;BME280;18039;52.188;21.024;2022-12-18T13:18:23;80030.56;;;-141.45;83.10
31403;BME280;18039;52.188;21.024;2022-12-18T13:21:03;80040.69;;;-141.45;83.64
31403;BME280;18039;52.188;21.024;2022-12-18T13:23:33;80048.81;;;-141.45;84.11
31403;BME280;18039;52.188;21.024;2022-12-18T13:31:58;80048.81;;;-141.45;84.32
31403;BME280;18039;52.188;21.024;2022-12-18T13:34:22;80056.94;;;-141.45;82.95
31403;BME280;18039;52.188;21.024;2022-12-18T13:39:58;80081.28;;;-141.45;84.19
31403;BME280;18039;52.188;21.024;2022-12-18T13:42:38;80085.34;;;-141.45;85.25
31403;BME280;18039;52.188;21.024;2022-12-18T13:45:40;80087.38;;;-141.45;85.15
31403;BME280;18039;52.188;21.024;2022-12-18T13:48:23;80093.44;;;-141.45;85.96
31403;BME280;18039;52.188;21.024;2022-12-18T13:50:59;80093.44;;;-141.45;85.94
31403;BME280;18039;52.188;21.024;2022-12-18T13:53:31;80089.41;;;-141.45;86.64
31403;BME280;18039;52.188;21.024;2022-12-18T13:56:00;80093.44;;;-141.45;86.30
31403;BME280;18039;52.188;21.024;2022-12-18T13:58:27;80105.63;;;-141.45;86.58
31403;BME280;18039;52.188;21.024;2022-12-18T14:00:54;80097.50;;;-141.45;85.59
31403;BME280;18039;52.188;21.024;2022-12-18T14:03:25;80105.63;;;-141.45;85.42
31403;BME280;18039;52.188;21.024;2022-12-18T14:06:02;80115.78;;;-141.45;85.36
31403;BME280;18039;52.188;21.024;2022-12-18T14:08:38;80132.00;;;-141.45;86.38
31403;BME280;18039;52.188;21.024;2022-12-18T14:11:07;80138.09;;;-141.45;86.53
31403;BME280;18039;52.188;21.024;2022-12-18T14:13:46;80134.03;;;-141.45;86.62
31403;BME280;18039;52.188;21.024;2022-12-18T14:16:15;80146.22;;;-141.45;86.56
31403;BME280;18039;52.188;21.024;2022-12-18T14:18:52;80160.41;;;-141.45;86.96
31403;BME280;18039;52.188;21.024;2022-12-18T14:21:28;80158.38;;;-141.45;86.36
31403;BME280;18039;52.188;21.024;2022-12-18T14:26:32;80182.75;;;-141.45;86.52
31403;BME280;18039;52.188;21.024;2022-12-18T14:29:17;80184.78;;;-141.45;86.17
31403;BME280;18039;52.188;21.024;2022-12-18T14:31:45;80190.84;;;-141.45;86.74
31403;BME280;18039;52.188;21.024;2022-12-18T14:34:16;80198.97;;;-141.45;87.49
31403;BME280;18039;52.188;21.024;2022-12-18T14:36:52;80190.84;;;-141.45;87.65
31403;BME280;18039;52.188;21.024;2022-12-18T14:39:19;80196.94;;;-141.45;88.21
31403;BME280;18039;52.188;21.024;2022-12-18T14:41:48;80188.81;;;-141.45;88.03
31403;BME280;18039;52.188;21.024;2022-12-18T14:44:15;80211.16;;;-141.45;88.25